SAA1167 ULLI-FMEE
Flight info
| Callsign | SAA1167 |
|---|---|
| Flight time | N/A |
| Altitude | 35000 |
| Route | SUGIN T873 TOKNU L4 UPERI T833 TOGMO M56 ABAGI W21 PELNE B105 NATIT DCT ULMEZ DCT SL A964 NOKLI N72 BAKUV N39 PIROG N23 ULDUS R794 ULEXI N39 NSH R794 DHN Y10 RERET M715 PURKI W32 BND M324 PATAT DCT LAGTA L223 ANVIX R401 GIDIS G783 UKRAG L710 DEDSO/N0498F340 R401 SUHIL UM314 NIBIS |
| Aircraft | A346/H-SDE2E3FGHIJ3J4J5M1RWXY/LB1D1 |
Departure
| Time | 2026-05-05 19:51 |
|---|---|
| Airport | Pulkovo Airport (ULLI) |
Arrival
| Time | N/A |
|---|---|
| Airport | Roland Garros Airport (FMEE) |
| Time | Latitude | Longitude | Altitude | Speed | Heading |
|---|---|---|---|---|---|
| 2026-05-05 19:34 | 59.80341 | 30.26607 | 87 ft | 0 kts | 106° |
| 2026-05-05 19:42 | 59.80339 | 30.26621 | 87 ft | 3 kts | 106° |
| 2026-05-05 19:43 | 59.80329 | 30.26685 | 91 ft | 6 kts | 106° |
| 2026-05-05 19:43 | 59.80334 | 30.26764 | 91 ft | 6 kts | 49° |
| 2026-05-05 19:43 | 59.80374 | 30.26809 | 90 ft | 6 kts | 36° |
| 2026-05-05 19:43 | 59.80386 | 30.26894 | 91 ft | 7 kts | 96° |
| 2026-05-05 19:44 | 59.80375 | 30.26996 | 91 ft | 8 kts | 105° |
| 2026-05-05 19:44 | 59.80356 | 30.27125 | 89 ft | 11 kts | 106° |
| 2026-05-05 19:44 | 59.80332 | 30.27288 | 92 ft | 13 kts | 106° |
| 2026-05-05 19:44 | 59.80306 | 30.27464 | 91 ft | 14 kts | 107° |
| 2026-05-05 19:45 | 59.80278 | 30.27649 | 89 ft | 14 kts | 107° |
| 2026-05-05 19:45 | 59.80249 | 30.27841 | 89 ft | 15 kts | 107° |
| 2026-05-05 19:45 | 59.80219 | 30.28038 | 87 ft | 15 kts | 107° |
| 2026-05-05 19:45 | 59.80190 | 30.28239 | 90 ft | 15 kts | 106° |
| 2026-05-05 19:46 | 59.80159 | 30.28445 | 89 ft | 15 kts | 107° |
| 2026-05-05 19:46 | 59.80128 | 30.28651 | 89 ft | 16 kts | 107° |
| 2026-05-05 19:46 | 59.80097 | 30.28860 | 88 ft | 16 kts | 107° |
| 2026-05-05 19:46 | 59.80065 | 30.29071 | 84 ft | 16 kts | 107° |
| 2026-05-05 19:47 | 59.80034 | 30.29283 | 87 ft | 16 kts | 107° |
| 2026-05-05 19:47 | 59.80002 | 30.29497 | 88 ft | 16 kts | 107° |
| 2026-05-05 19:47 | 59.79969 | 30.29715 | 87 ft | 16 kts | 107° |
| 2026-05-05 19:47 | 59.79941 | 30.29901 | 88 ft | 9 kts | 106° |
| 2026-05-05 19:48 | 59.79946 | 30.30027 | 86 ft | 10 kts | 63° |
| 2026-05-05 19:48 | 59.79991 | 30.30139 | 87 ft | 11 kts | 48° |
| 2026-05-05 19:48 | 59.80047 | 30.30254 | 83 ft | 12 kts | 38° |
| 2026-05-05 19:48 | 59.80087 | 30.30286 | 86 ft | 5 kts | 355° |
| 2026-05-05 19:49 | 59.80113 | 30.30249 | 86 ft | 5 kts | 305° |
| 2026-05-05 19:49 | 59.80125 | 30.30206 | 87 ft | 6 kts | 291° |
| 2026-05-05 19:49 | 59.80128 | 30.30183 | 87 ft | 0 kts | 287° |
| 2026-05-05 19:50 | 59.80152 | 30.30031 | 85 ft | 38 kts | 287° |
| 2026-05-05 19:50 | 59.80297 | 30.29073 | 87 ft | 102 kts | 287° |
| 2026-05-05 19:50 | 59.80554 | 30.27366 | 87 ft | 154 kts | 287° |
| 2026-05-05 19:50 | 59.80904 | 30.25050 | 118 ft | 190 kts | 287° |
| 2026-05-05 19:51 | 59.81287 | 30.22512 | 645 ft | 191 kts | 287° |
| 2026-05-05 19:51 | 59.81662 | 30.19974 | 1297 ft | 190 kts | 286° |
| 2026-05-05 19:51 | 59.82022 | 30.17498 | 2127 ft | 181 kts | 286° |
| 2026-05-05 19:51 | 59.82382 | 30.15044 | 2502 ft | 190 kts | 286° |
| 2026-05-05 19:52 | 59.82763 | 30.12459 | 2783 ft | 201 kts | 286° |
| 2026-05-05 19:52 | 59.83160 | 30.09755 | 3139 ft | 209 kts | 285° |
| 2026-05-05 19:52 | 59.83574 | 30.06954 | 3702 ft | 207 kts | 284° |
| 2026-05-05 19:52 | 59.83984 | 30.04199 | 4300 ft | 207 kts | 283° |
| 2026-05-05 19:53 | 59.84246 | 30.01425 | 4760 ft | 208 kts | 262° |
| 2026-05-05 19:53 | 59.83797 | 29.98710 | 5206 ft | 211 kts | 235° |
| 2026-05-05 19:53 | 59.82692 | 29.96713 | 5732 ft | 218 kts | 209° |
| 2026-05-05 19:53 | 59.81231 | 29.95716 | 6113 ft | 232 kts | 202° |
| 2026-05-05 19:54 | 59.79609 | 29.94770 | 6347 ft | 246 kts | 202° |
| 2026-05-05 19:54 | 59.77950 | 29.93805 | 6603 ft | 258 kts | 201° |
| 2026-05-05 19:54 | 59.76167 | 29.92816 | 7033 ft | 266 kts | 197° |
| 2026-05-05 19:54 | 59.74308 | 29.93019 | 7509 ft | 287 kts | 166° |
| 2026-05-05 19:55 | 59.72634 | 29.95382 | 8036 ft | 310 kts | 134° |
| 2026-05-05 19:55 | 59.71665 | 29.99289 | 8626 ft | 324 kts | 111° |
| 2026-05-05 19:55 | 59.71146 | 30.03700 | 9104 ft | 332 kts | 107° |
| 2026-05-05 19:55 | 59.70662 | 30.08206 | 9522 ft | 337 kts | 109° |
| 2026-05-05 19:56 | 59.70107 | 30.12753 | 9944 ft | 341 kts | 109° |
| 2026-05-05 19:56 | 59.69671 | 30.17451 | 10188 ft | 354 kts | 101° |
| 2026-05-05 19:56 | 59.69527 | 30.20787 | 10351 ft | 364 kts | 97° |
| 2026-05-05 19:56 | 59.69432 | 30.25892 | 10572 ft | 377 kts | 95° |
| 2026-05-05 19:57 | 59.69344 | 30.31160 | 10782 ft | 387 kts | 98° |
| 2026-05-05 19:57 | 59.69060 | 30.36538 | 10973 ft | 396 kts | 103° |
| 2026-05-05 19:57 | 59.68553 | 30.41971 | 11196 ft | 406 kts | 106° |
| 2026-05-05 19:57 | 59.67958 | 30.47512 | 11480 ft | 414 kts | 107° |
| 2026-05-05 19:58 | 59.67344 | 30.53113 | 11934 ft | 417 kts | 107° |
| 2026-05-05 19:58 | 59.66729 | 30.58745 | 12438 ft | 420 kts | 107° |
| 2026-05-05 19:58 | 59.66111 | 30.64449 | 12905 ft | 424 kts | 107° |
| 2026-05-05 19:58 | 59.65517 | 30.70203 | 13361 ft | 429 kts | 104° |
| 2026-05-05 19:59 | 59.65020 | 30.76058 | 13775 ft | 434 kts | 103° |
| 2026-05-05 19:59 | 59.64538 | 30.81979 | 14143 ft | 437 kts | 103° |
| 2026-05-05 19:59 | 59.64052 | 30.87930 | 14580 ft | 439 kts | 103° |
| 2026-05-05 19:59 | 59.63561 | 30.93914 | 15008 ft | 442 kts | 103° |
| 2026-05-05 20:00 | 59.63060 | 30.99937 | 15401 ft | 445 kts | 103° |
| 2026-05-05 20:00 | 59.62553 | 31.05983 | 15797 ft | 448 kts | 103° |
| 2026-05-05 20:00 | 59.62038 | 31.12060 | 16203 ft | 451 kts | 103° |
| 2026-05-05 20:00 | 59.61514 | 31.18203 | 16599 ft | 454 kts | 103° |
| 2026-05-05 20:01 | 59.60985 | 31.24372 | 17005 ft | 457 kts | 103° |
| 2026-05-05 20:01 | 59.60449 | 31.30578 | 17388 ft | 459 kts | 103° |
| 2026-05-05 20:01 | 59.59901 | 31.36889 | 17795 ft | 462 kts | 104° |
| 2026-05-05 20:01 | 59.59341 | 31.43122 | 18307 ft | 459 kts | 104° |
| 2026-05-05 20:02 | 59.58795 | 31.49375 | 18560 ft | 465 kts | 104° |
| 2026-05-05 20:02 | 59.58232 | 31.55710 | 18757 ft | 470 kts | 104° |
| 2026-05-05 20:02 | 59.57661 | 31.62090 | 19093 ft | 473 kts | 104° |
| 2026-05-05 20:02 | 59.57085 | 31.68507 | 19439 ft | 476 kts | 104° |
| 2026-05-05 20:03 | 59.56502 | 31.74972 | 19720 ft | 480 kts | 104° |
| 2026-05-05 20:03 | 59.55912 | 31.81487 | 20035 ft | 483 kts | 104° |
| 2026-05-05 20:03 | 59.55318 | 31.88016 | 20346 ft | 486 kts | 104° |
| 2026-05-05 20:03 | 59.54715 | 31.94604 | 20670 ft | 488 kts | 104° |
| 2026-05-05 20:04 | 59.54105 | 32.01219 | 20974 ft | 491 kts | 104° |
| 2026-05-05 20:04 | 59.53269 | 32.07726 | 21212 ft | 488 kts | 116° |
| 2026-05-05 20:04 | 59.51734 | 32.13610 | 21457 ft | 478 kts | 132° |
| 2026-05-05 20:04 | 59.49609 | 32.18535 | 21748 ft | 468 kts | 142° |
| 2026-05-05 20:05 | 59.47287 | 32.23015 | 22143 ft | 467 kts | 144° |
| 2026-05-05 20:05 | 59.44931 | 32.27459 | 22442 ft | 470 kts | 144° |
| 2026-05-05 20:05 | 59.42572 | 32.31930 | 22709 ft | 473 kts | 144° |
| 2026-05-05 20:05 | 59.40205 | 32.36455 | 22999 ft | 476 kts | 143° |
| 2026-05-05 20:06 | 59.37833 | 32.41017 | 23290 ft | 478 kts | 143° |
| 2026-05-05 20:06 | 59.35450 | 32.45615 | 23548 ft | 481 kts | 143° |
| 2026-05-05 20:06 | 59.33065 | 32.50214 | 23780 ft | 482 kts | 143° |
| 2026-05-05 20:06 | 59.30677 | 32.54818 | 24115 ft | 482 kts | 143° |
| 2026-05-05 20:07 | 59.28281 | 32.59437 | 24351 ft | 483 kts | 143° |
| 2026-05-05 20:07 | 59.25885 | 32.64037 | 24620 ft | 484 kts | 142° |
| 2026-05-05 20:07 | 59.23475 | 32.68661 | 24912 ft | 485 kts | 142° |
| 2026-05-05 20:07 | 59.21062 | 32.73287 | 25165 ft | 487 kts | 142° |
| 2026-05-05 20:08 | 59.18640 | 32.77918 | 25372 ft | 488 kts | 142° |
| 2026-05-05 20:08 | 59.16207 | 32.82559 | 25624 ft | 490 kts | 142° |
| 2026-05-05 20:08 | 59.13766 | 32.87202 | 25862 ft | 491 kts | 142° |
| 2026-05-05 20:08 | 59.11309 | 32.91868 | 26091 ft | 493 kts | 143° |
| 2026-05-05 20:09 | 59.08850 | 32.96526 | 26325 ft | 495 kts | 143° |
| 2026-05-05 20:09 | 59.06380 | 33.01196 | 26544 ft | 496 kts | 143° |
| 2026-05-05 20:09 | 59.03894 | 33.05886 | 26760 ft | 498 kts | 143° |
| 2026-05-05 20:09 | 59.01400 | 33.10580 | 26978 ft | 499 kts | 143° |
| 2026-05-05 20:10 | 58.98899 | 33.15276 | 27176 ft | 501 kts | 143° |
| 2026-05-05 20:10 | 58.96387 | 33.19984 | 27399 ft | 502 kts | 143° |
| 2026-05-05 20:10 | 58.93496 | 33.25388 | 27631 ft | 504 kts | 143° |
| 2026-05-05 20:10 | 58.91338 | 33.29414 | 27808 ft | 505 kts | 143° |
| 2026-05-05 20:11 | 58.88803 | 33.34135 | 28011 ft | 507 kts | 143° |
| 2026-05-05 20:11 | 58.86257 | 33.38865 | 28200 ft | 508 kts | 143° |
| 2026-05-05 20:11 | 58.83702 | 33.43604 | 28431 ft | 509 kts | 143° |
| 2026-05-05 20:11 | 58.81143 | 33.48338 | 28692 ft | 508 kts | 143° |
| 2026-05-05 20:12 | 58.78598 | 33.53040 | 29001 ft | 507 kts | 143° |
| 2026-05-05 20:12 | 58.76046 | 33.57744 | 29305 ft | 506 kts | 143° |
| 2026-05-05 20:12 | 58.73499 | 33.62426 | 29591 ft | 506 kts | 143° |
| 2026-05-05 20:12 | 58.70950 | 33.67101 | 29846 ft | 506 kts | 143° |
| 2026-05-05 20:13 | 58.68399 | 33.71770 | 30075 ft | 505 kts | 143° |
| 2026-05-05 20:13 | 58.65853 | 33.76420 | 30304 ft | 504 kts | 143° |
| 2026-05-05 20:13 | 58.63309 | 33.81055 | 30531 ft | 504 kts | 143° |
| 2026-05-05 20:13 | 58.60757 | 33.85695 | 30732 ft | 503 kts | 143° |
| 2026-05-05 20:14 | 58.58215 | 33.90303 | 30939 ft | 502 kts | 143° |
| 2026-05-05 20:14 | 58.55675 | 33.94902 | 31141 ft | 501 kts | 143° |
| 2026-05-05 20:14 | 58.53143 | 33.99479 | 31347 ft | 501 kts | 143° |
| 2026-05-05 20:14 | 58.50611 | 34.04046 | 31552 ft | 501 kts | 143° |
| 2026-05-05 20:15 | 58.48074 | 34.08613 | 31756 ft | 500 kts | 143° |
| 2026-05-05 20:15 | 58.45542 | 34.13159 | 31950 ft | 500 kts | 144° |
| 2026-05-05 20:15 | 58.43007 | 34.17703 | 32145 ft | 499 kts | 144° |
| 2026-05-05 20:15 | 58.40470 | 34.22239 | 32334 ft | 499 kts | 144° |
| 2026-05-05 20:16 | 58.37945 | 34.26746 | 32484 ft | 498 kts | 144° |
| 2026-05-05 20:16 | 58.35400 | 34.31268 | 32625 ft | 499 kts | 143° |
| 2026-05-05 20:16 | 58.32863 | 34.35771 | 32745 ft | 500 kts | 143° |
| 2026-05-05 20:16 | 58.30314 | 34.40293 | 32869 ft | 500 kts | 143° |
| 2026-05-05 20:17 | 58.27768 | 34.44800 | 33026 ft | 500 kts | 144° |
| 2026-05-05 20:17 | 58.25155 | 34.49142 | 33177 ft | 497 kts | 148° |
| 2026-05-05 20:17 | 58.22439 | 34.53150 | 33327 ft | 493 kts | 151° |
| 2026-05-05 20:17 | 58.19624 | 34.56814 | 33473 ft | 489 kts | 155° |
| 2026-05-05 20:18 | 58.16720 | 34.60129 | 33624 ft | 485 kts | 159° |
| 2026-05-05 20:18 | 58.13745 | 34.63092 | 33764 ft | 481 kts | 162° |
| 2026-05-05 20:18 | 58.10719 | 34.65692 | 33856 ft | 477 kts | 165° |
| 2026-05-05 20:18 | 58.07660 | 34.68100 | 33974 ft | 476 kts | 164° |
| 2026-05-05 20:19 | 58.04600 | 34.70549 | 34081 ft | 477 kts | 164° |
| 2026-05-05 20:19 | 57.98504 | 34.75463 | 34237 ft | 477 kts | 164° |
| 2026-05-05 20:19 | 57.95452 | 34.77922 | 34369 ft | 476 kts | 164° |
| 2026-05-05 20:20 | 57.92406 | 34.80370 | 34485 ft | 476 kts | 164° |
| 2026-05-05 20:20 | 57.86306 | 34.85256 | 34634 ft | 477 kts | 164° |
| 2026-05-05 20:21 | 57.80195 | 34.90129 | 34749 ft | 478 kts | 163° |
| 2026-05-05 20:21 | 57.74064 | 34.95012 | 34786 ft | 480 kts | 162° |
| 2026-05-05 20:22 | 57.68076 | 35.00662 | 34790 ft | 485 kts | 156° |
| 2026-05-05 20:22 | 57.62239 | 35.07042 | 34793 ft | 486 kts | 156° |
| 2026-05-05 20:23 | 57.56386 | 35.13370 | 34795 ft | 486 kts | 156° |
| 2026-05-05 20:23 | 57.50541 | 35.19660 | 34774 ft | 485 kts | 156° |
| 2026-05-05 20:24 | 57.44698 | 35.25929 | 34792 ft | 484 kts | 156° |
| 2026-05-05 20:24 | 57.38857 | 35.32176 | 34799 ft | 484 kts | 156° |
| 2026-05-05 20:25 | 57.33018 | 35.38395 | 34801 ft | 484 kts | 156° |
| 2026-05-05 20:25 | 57.27167 | 35.44604 | 34801 ft | 484 kts | 156° |
| 2026-05-05 20:26 | 57.21321 | 35.50779 | 34787 ft | 485 kts | 156° |
| 2026-05-05 20:26 | 57.15451 | 35.56963 | 34795 ft | 486 kts | 156° |
| 2026-05-05 20:27 | 57.09580 | 35.63129 | 34808 ft | 486 kts | 156° |
| 2026-05-05 20:27 | 57.03706 | 35.69273 | 34785 ft | 486 kts | 156° |
| 2026-05-05 20:28 | 56.97828 | 35.75394 | 34816 ft | 485 kts | 156° |
| 2026-05-05 20:28 | 56.91955 | 35.81486 | 34801 ft | 485 kts | 156° |
| 2026-05-05 20:29 | 56.86080 | 35.87566 | 34812 ft | 485 kts | 156° |
| 2026-05-05 20:29 | 56.80201 | 35.93625 | 34818 ft | 485 kts | 156° |
| 2026-05-05 20:30 | 56.74319 | 35.99662 | 34816 ft | 485 kts | 156° |
| 2026-05-05 20:30 | 56.68443 | 36.05677 | 34806 ft | 485 kts | 155° |
| 2026-05-05 20:31 | 56.62556 | 36.11676 | 34815 ft | 485 kts | 155° |
| 2026-05-05 20:31 | 56.56665 | 36.17667 | 34821 ft | 485 kts | 156° |
| 2026-05-05 20:32 | 56.50773 | 36.23632 | 34808 ft | 484 kts | 155° |
| 2026-05-05 20:32 | 56.44888 | 36.29578 | 34825 ft | 484 kts | 154° |
| 2026-05-05 20:33 | 56.39245 | 36.36322 | 34824 ft | 489 kts | 147° |
| 2026-05-05 20:33 | 56.34089 | 36.44476 | 34831 ft | 494 kts | 138° |
| 2026-05-05 20:34 | 56.29570 | 36.53880 | 34831 ft | 498 kts | 130° |
| 2026-05-05 20:34 | 56.25410 | 36.63880 | 34831 ft | 499 kts | 130° |
| 2026-05-05 20:35 | 56.21237 | 36.73845 | 34814 ft | 498 kts | 130° |
| 2026-05-05 20:35 | 56.17045 | 36.83765 | 34831 ft | 498 kts | 130° |
| 2026-05-05 20:36 | 56.12849 | 36.93646 | 34834 ft | 498 kts | 130° |
| 2026-05-05 20:36 | 56.09353 | 37.01842 | 34834 ft | 498 kts | 130° |
| 2026-05-05 20:37 | 56.05164 | 37.11721 | 34835 ft | 498 kts | 130° |
| 2026-05-05 20:37 | 56.00919 | 37.21494 | 34832 ft | 495 kts | 134° |
| 2026-05-05 20:38 | 55.96185 | 37.30326 | 34839 ft | 492 kts | 141° |
| 2026-05-05 20:38 | 55.90924 | 37.38069 | 34838 ft | 489 kts | 148° |
| 2026-05-05 20:39 | 55.85301 | 37.44820 | 34837 ft | 487 kts | 150° |
| 2026-05-05 20:39 | 55.79652 | 37.51498 | 34828 ft | 486 kts | 149° |
| 2026-05-05 20:40 | 55.74020 | 37.58173 | 34840 ft | 485 kts | 149° |
| 2026-05-05 20:40 | 55.68399 | 37.64815 | 34843 ft | 485 kts | 149° |
| 2026-05-05 20:41 | 55.62656 | 37.71051 | 34851 ft | 483 kts | 155° |
| 2026-05-05 20:41 | 55.56731 | 37.76628 | 34856 ft | 482 kts | 155° |
| 2026-05-05 20:42 | 55.50808 | 37.82218 | 34862 ft | 482 kts | 155° |
| 2026-05-05 20:42 | 55.44876 | 37.87801 | 34863 ft | 481 kts | 155° |
| 2026-05-05 20:43 | 55.38985 | 37.93405 | 34863 ft | 482 kts | 153° |
| 2026-05-05 20:43 | 55.33288 | 37.99696 | 34862 ft | 484 kts | 150° |
| 2026-05-05 20:44 | 55.27616 | 38.06038 | 34847 ft | 483 kts | 150° |
| 2026-05-05 20:44 | 55.21950 | 38.12345 | 34851 ft | 482 kts | 150° |
| 2026-05-05 20:45 | 55.13457 | 38.21763 | 34856 ft | 481 kts | 150° |
| 2026-05-05 20:45 | 55.07784 | 38.28030 | 34853 ft | 481 kts | 150° |
| 2026-05-05 20:46 | 55.02125 | 38.34259 | 34843 ft | 480 kts | 150° |
| 2026-05-05 20:46 | 54.96486 | 38.40446 | 34854 ft | 479 kts | 150° |
| 2026-05-05 20:47 | 54.90840 | 38.46620 | 34855 ft | 479 kts | 150° |
| 2026-05-05 20:47 | 54.85196 | 38.52771 | 34855 ft | 479 kts | 150° |
| 2026-05-05 20:48 | 54.79543 | 38.58911 | 34851 ft | 479 kts | 150° |
| 2026-05-05 20:48 | 54.73891 | 38.65025 | 34856 ft | 479 kts | 150° |
| 2026-05-05 20:49 | 54.68240 | 38.71124 | 34860 ft | 479 kts | 150° |
| 2026-05-05 20:49 | 54.62585 | 38.77202 | 34854 ft | 478 kts | 150° |
| 2026-05-05 20:50 | 54.56934 | 38.83256 | 34859 ft | 478 kts | 150° |
| 2026-05-05 20:50 | 54.51273 | 38.89303 | 34858 ft | 477 kts | 150° |
| 2026-05-05 20:51 | 54.45682 | 38.95474 | 34864 ft | 479 kts | 145° |
| 2026-05-05 20:51 | 54.40733 | 39.03143 | 34877 ft | 482 kts | 133° |
| 2026-05-05 20:52 | 54.36751 | 39.12426 | 34869 ft | 484 kts | 121° |
| 2026-05-05 20:52 | 54.33870 | 39.22889 | 34870 ft | 485 kts | 113° |
| 2026-05-05 20:53 | 54.31355 | 39.33617 | 34873 ft | 484 kts | 113° |
| 2026-05-05 20:53 | 54.28777 | 39.44290 | 34872 ft | 484 kts | 114° |
| 2026-05-05 20:54 | 54.26178 | 39.54933 | 34874 ft | 484 kts | 114° |
| 2026-05-05 20:54 | 54.23565 | 39.65574 | 34871 ft | 484 kts | 114° |
| 2026-05-05 20:55 | 54.20946 | 39.76187 | 34865 ft | 484 kts | 114° |
| 2026-05-05 20:55 | 54.18316 | 39.86795 | 34873 ft | 484 kts | 114° |
| 2026-05-05 20:56 | 54.15676 | 39.97394 | 34877 ft | 484 kts | 114° |
| 2026-05-05 20:56 | 54.13031 | 40.07961 | 34882 ft | 485 kts | 114° |
| 2026-05-05 20:57 | 54.10755 | 40.18736 | 34873 ft | 486 kts | 107° |
| 2026-05-05 20:57 | 54.08833 | 40.29865 | 34877 ft | 485 kts | 107° |
| 2026-05-05 20:58 | 54.06924 | 40.40890 | 34878 ft | 485 kts | 107° |
| 2026-05-05 20:58 | 54.05010 | 40.51836 | 34879 ft | 485 kts | 108° |
| 2026-05-05 20:59 | 54.03071 | 40.62846 | 34884 ft | 485 kts | 108° |
| 2026-05-05 20:59 | 54.01121 | 40.73835 | 34879 ft | 484 kts | 108° |
| 2026-05-05 21:00 | 53.99149 | 40.84888 | 34890 ft | 484 kts | 108° |
| 2026-05-05 21:00 | 53.97196 | 40.95766 | 34888 ft | 484 kts | 108° |
| 2026-05-05 21:01 | 53.95236 | 41.06716 | 34889 ft | 484 kts | 107° |
| 2026-05-05 21:01 | 53.93436 | 41.17737 | 34890 ft | 484 kts | 106° |
| 2026-05-05 21:02 | 53.91646 | 41.28750 | 34890 ft | 482 kts | 106° |
| 2026-05-05 21:02 | 53.89839 | 41.39707 | 34891 ft | 481 kts | 106° |
| 2026-05-05 21:03 | 53.88018 | 41.50636 | 34895 ft | 482 kts | 107° |
| 2026-05-05 21:03 | 53.86179 | 41.61590 | 34895 ft | 483 kts | 107° |
| 2026-05-05 21:04 | 53.84327 | 41.72544 | 34900 ft | 483 kts | 107° |
| 2026-05-05 21:04 | 53.82465 | 41.83469 | 34898 ft | 481 kts | 107° |
| 2026-05-05 21:05 | 53.80599 | 41.94343 | 34899 ft | 480 kts | 107° |
| 2026-05-05 21:05 | 53.78724 | 42.05196 | 34899 ft | 480 kts | 107° |
| 2026-05-05 21:06 | 53.76836 | 42.16058 | 34902 ft | 480 kts | 107° |
| 2026-05-05 21:06 | 53.74938 | 42.26905 | 34902 ft | 480 kts | 107° |
| 2026-05-05 21:07 | 53.73031 | 42.37730 | 34906 ft | 480 kts | 107° |
| 2026-05-05 21:07 | 53.71120 | 42.48517 | 34907 ft | 479 kts | 107° |
| 2026-05-05 21:08 | 53.68553 | 42.58875 | 34906 ft | 478 kts | 122° |
| 2026-05-05 21:08 | 53.64382 | 42.67568 | 34913 ft | 476 kts | 139° |
| 2026-05-05 21:09 | 53.58981 | 42.73924 | 34909 ft | 473 kts | 155° |
| 2026-05-05 21:09 | 53.52954 | 42.78360 | 34919 ft | 473 kts | 158° |
| 2026-05-05 21:10 | 53.46897 | 42.82660 | 34919 ft | 472 kts | 158° |
| 2026-05-05 21:10 | 53.40850 | 42.86987 | 34921 ft | 472 kts | 158° |
| 2026-05-05 21:11 | 53.34801 | 42.91322 | 34921 ft | 473 kts | 158° |
| 2026-05-05 21:11 | 53.28755 | 42.95646 | 34927 ft | 473 kts | 158° |
| 2026-05-05 21:12 | 53.22708 | 42.99961 | 34929 ft | 473 kts | 158° |
| 2026-05-05 21:12 | 53.16653 | 43.04263 | 34926 ft | 472 kts | 158° |
| 2026-05-05 21:13 | 53.10614 | 43.08610 | 34932 ft | 472 kts | 157° |
| 2026-05-05 21:13 | 53.04612 | 43.13093 | 34930 ft | 473 kts | 156° |
| 2026-05-05 21:14 | 52.98613 | 43.17564 | 34934 ft | 473 kts | 156° |
| 2026-05-05 21:14 | 52.92602 | 43.22017 | 34937 ft | 473 kts | 157° |
| 2026-05-05 21:15 | 52.86583 | 43.26457 | 34937 ft | 473 kts | 157° |
| 2026-05-05 21:15 | 52.80566 | 43.30879 | 34940 ft | 473 kts | 157° |
| 2026-05-05 21:16 | 52.74541 | 43.35294 | 34940 ft | 473 kts | 157° |
| 2026-05-05 21:16 | 52.68514 | 43.39695 | 34943 ft | 473 kts | 156° |
| 2026-05-05 21:17 | 52.62496 | 43.44079 | 34944 ft | 473 kts | 156° |
| 2026-05-05 21:17 | 52.56480 | 43.48448 | 34946 ft | 473 kts | 157° |
| 2026-05-05 21:18 | 52.51470 | 43.52077 | 34948 ft | 473 kts | 157° |
| 2026-05-05 21:18 | 52.45445 | 43.56428 | 34948 ft | 473 kts | 157° |
| 2026-05-05 21:19 | 52.39422 | 43.60764 | 34946 ft | 473 kts | 157° |
| 2026-05-05 21:19 | 52.33398 | 43.65088 | 34946 ft | 473 kts | 157° |
| 2026-05-05 21:20 | 52.27370 | 43.69399 | 34948 ft | 473 kts | 157° |
| 2026-05-05 21:20 | 52.21342 | 43.73700 | 34946 ft | 472 kts | 156° |
| 2026-05-05 21:21 | 52.15283 | 43.78010 | 34951 ft | 472 kts | 156° |
| 2026-05-05 21:21 | 52.09259 | 43.82285 | 34954 ft | 472 kts | 156° |
| 2026-05-05 21:22 | 52.03235 | 43.86544 | 34952 ft | 472 kts | 156° |
| 2026-05-05 21:22 | 51.97216 | 43.90789 | 34957 ft | 473 kts | 156° |
| 2026-05-05 21:23 | 51.91178 | 43.95035 | 34954 ft | 472 kts | 157° |
| 2026-05-05 21:23 | 51.85148 | 43.99262 | 34953 ft | 472 kts | 157° |
| 2026-05-05 21:24 | 51.79112 | 44.03480 | 34950 ft | 473 kts | 157° |
| 2026-05-05 21:24 | 51.73072 | 44.07689 | 34951 ft | 473 kts | 157° |
| 2026-05-05 21:25 | 51.67024 | 44.11891 | 34970 ft | 473 kts | 157° |
| 2026-05-05 21:25 | 51.60981 | 44.16079 | 34957 ft | 473 kts | 157° |
| 2026-05-05 21:26 | 51.54935 | 44.20256 | 34957 ft | 473 kts | 157° |
| 2026-05-05 21:26 | 51.48886 | 44.24421 | 34958 ft | 473 kts | 157° |
| 2026-05-05 21:27 | 51.42840 | 44.28574 | 34960 ft | 473 kts | 157° |
| 2026-05-05 21:27 | 51.36794 | 44.32715 | 34963 ft | 473 kts | 157° |
| 2026-05-05 21:28 | 51.30745 | 44.36845 | 34961 ft | 473 kts | 157° |
| 2026-05-05 21:28 | 51.24676 | 44.40948 | 34960 ft | 473 kts | 158° |
| 2026-05-05 21:29 | 51.18402 | 44.44104 | 34963 ft | 474 kts | 167° |
| 2026-05-05 21:29 | 51.11891 | 44.45770 | 34964 ft | 474 kts | 175° |
| 2026-05-05 21:30 | 51.05299 | 44.45910 | 34964 ft | 474 kts | 183° |
| 2026-05-05 21:30 | 50.98713 | 44.45267 | 34965 ft | 475 kts | 183° |
| 2026-05-05 21:31 | 50.92102 | 44.44635 | 34963 ft | 476 kts | 183° |
| 2026-05-05 21:31 | 50.85496 | 44.44014 | 34962 ft | 476 kts | 183° |
| 2026-05-05 21:32 | 50.78877 | 44.43400 | 34964 ft | 476 kts | 183° |
| 2026-05-05 21:32 | 50.72264 | 44.42789 | 34964 ft | 476 kts | 183° |
| 2026-05-05 21:33 | 50.65646 | 44.42179 | 34968 ft | 477 kts | 183° |
| 2026-05-05 21:33 | 50.59020 | 44.41570 | 34969 ft | 477 kts | 183° |
| 2026-05-05 21:34 | 50.52391 | 44.40962 | 34967 ft | 477 kts | 183° |
| 2026-05-05 21:34 | 50.45766 | 44.40357 | 34968 ft | 477 kts | 183° |
| 2026-05-05 21:35 | 50.39140 | 44.39754 | 34971 ft | 477 kts | 183° |
| 2026-05-05 21:35 | 50.32513 | 44.39151 | 34972 ft | 477 kts | 183° |
| 2026-05-05 21:36 | 50.25877 | 44.38542 | 34974 ft | 478 kts | 182° |
| 2026-05-05 21:36 | 50.19238 | 44.37946 | 34971 ft | 478 kts | 182° |
| 2026-05-05 21:37 | 50.12602 | 44.37352 | 34970 ft | 478 kts | 182° |
| 2026-05-05 21:37 | 50.05959 | 44.36756 | 34970 ft | 478 kts | 182° |
| 2026-05-05 21:38 | 49.99320 | 44.36161 | 34983 ft | 478 kts | 182° |
| 2026-05-05 21:38 | 49.92715 | 44.35565 | 34975 ft | 474 kts | 182° |
| 2026-05-05 21:39 | 49.86139 | 44.34983 | 34974 ft | 473 kts | 182° |
| 2026-05-05 21:39 | 49.79566 | 44.34401 | 34973 ft | 473 kts | 182° |
| 2026-05-05 21:40 | 49.72986 | 44.33819 | 34970 ft | 473 kts | 182° |
| 2026-05-05 21:40 | 49.66406 | 44.33267 | 34966 ft | 473 kts | 179° |
| 2026-05-05 21:41 | 49.59872 | 44.34013 | 34972 ft | 471 kts | 168° |
| 2026-05-05 21:41 | 49.53583 | 44.36705 | 34973 ft | 468 kts | 157° |
| 2026-05-05 21:42 | 49.47787 | 44.41182 | 34970 ft | 466 kts | 147° |
| 2026-05-05 21:42 | 49.42307 | 44.46522 | 34980 ft | 466 kts | 146° |
| 2026-05-05 21:43 | 49.36828 | 44.51870 | 34972 ft | 467 kts | 146° |
| 2026-05-05 21:43 | 49.31335 | 44.57201 | 34968 ft | 467 kts | 146° |
| 2026-05-05 21:44 | 49.25837 | 44.62511 | 34971 ft | 467 kts | 146° |
| 2026-05-05 21:44 | 49.20333 | 44.67807 | 34981 ft | 468 kts | 146° |
| 2026-05-05 21:45 | 49.14825 | 44.73090 | 34965 ft | 468 kts | 146° |
| 2026-05-05 21:45 | 49.09311 | 44.78374 | 34964 ft | 468 kts | 146° |
| 2026-05-05 21:46 | 49.03791 | 44.83647 | 34960 ft | 468 kts | 146° |
| 2026-05-05 21:46 | 48.98270 | 44.88903 | 34966 ft | 468 kts | 146° |
| 2026-05-05 21:47 | 48.92748 | 44.94146 | 34961 ft | 468 kts | 146° |
| 2026-05-05 21:47 | 48.87229 | 44.99377 | 34954 ft | 468 kts | 146° |
| 2026-05-05 21:48 | 48.81690 | 45.04565 | 34953 ft | 468 kts | 147° |
| 2026-05-05 21:48 | 48.75882 | 45.09083 | 34959 ft | 470 kts | 153° |
| 2026-05-05 21:49 | 48.69786 | 45.12720 | 34952 ft | 471 kts | 156° |
| 2026-05-05 21:49 | 48.63652 | 45.16227 | 34950 ft | 471 kts | 156° |
| 2026-05-05 21:50 | 48.57511 | 45.19741 | 34952 ft | 472 kts | 156° |
| 2026-05-05 21:50 | 48.51370 | 45.23241 | 34956 ft | 471 kts | 156° |
| 2026-05-05 21:51 | 48.45078 | 45.26056 | 34949 ft | 475 kts | 167° |
| 2026-05-05 21:51 | 48.38460 | 45.26820 | 34949 ft | 480 kts | 180° |
| 2026-05-05 21:52 | 48.31819 | 45.25419 | 34948 ft | 485 kts | 192° |
| 2026-05-05 21:52 | 48.28577 | 45.23965 | 34951 ft | 487 kts | 195° |
| 2026-05-05 21:53 | 48.22148 | 45.20793 | 34952 ft | 486 kts | 196° |
| 2026-05-05 21:53 | 48.15720 | 45.17659 | 34946 ft | 485 kts | 195° |
| 2026-05-05 21:54 | 48.09234 | 45.14927 | 34943 ft | 482 kts | 187° |
| 2026-05-05 21:54 | 48.02583 | 45.14464 | 34955 ft | 477 kts | 172° |
| 2026-05-05 21:55 | 47.96141 | 45.16460 | 34956 ft | 472 kts | 158° |
| 2026-05-05 21:55 | 47.90201 | 45.20483 | 34962 ft | 468 kts | 150° |
| 2026-05-05 21:56 | 47.84396 | 45.24878 | 34956 ft | 468 kts | 150° |
| 2026-05-05 21:56 | 47.78575 | 45.29251 | 34952 ft | 468 kts | 151° |
| 2026-05-05 21:57 | 47.72758 | 45.33589 | 34955 ft | 468 kts | 151° |
| 2026-05-05 21:57 | 47.66938 | 45.37918 | 34955 ft | 467 kts | 152° |
| 2026-05-05 21:58 | 47.62066 | 45.41521 | 34960 ft | 468 kts | 151° |
| 2026-05-05 21:58 | 47.56234 | 45.45829 | 34953 ft | 468 kts | 151° |
| 2026-05-05 21:59 | 47.50403 | 45.50127 | 34959 ft | 468 kts | 152° |
| 2026-05-05 21:59 | 47.44584 | 45.54411 | 34952 ft | 467 kts | 152° |
| 2026-05-05 22:00 | 47.38764 | 45.58674 | 34951 ft | 467 kts | 152° |
| 2026-05-05 22:00 | 47.32947 | 45.62928 | 34954 ft | 467 kts | 152° |
| 2026-05-05 22:01 | 47.27122 | 45.67178 | 34958 ft | 467 kts | 152° |
| 2026-05-05 22:01 | 47.21304 | 45.71417 | 34953 ft | 467 kts | 152° |
| 2026-05-05 22:02 | 47.15485 | 45.75670 | 34959 ft | 467 kts | 152° |
| 2026-05-05 22:02 | 47.09655 | 45.79918 | 34951 ft | 468 kts | 152° |
| 2026-05-05 22:03 | 47.03827 | 45.84160 | 34955 ft | 467 kts | 153° |
| 2026-05-05 22:03 | 46.97986 | 45.88392 | 34951 ft | 467 kts | 153° |
| 2026-05-05 22:04 | 46.92152 | 45.92609 | 34945 ft | 467 kts | 153° |
| 2026-05-05 22:04 | 46.86319 | 45.96817 | 34958 ft | 467 kts | 153° |
| 2026-05-05 22:05 | 46.80485 | 46.01021 | 34949 ft | 467 kts | 153° |
| 2026-05-05 22:05 | 46.74652 | 46.05205 | 34946 ft | 467 kts | 153° |
| 2026-05-05 22:06 | 46.68812 | 46.09385 | 34948 ft | 468 kts | 153° |
| 2026-05-05 22:06 | 46.62961 | 46.13572 | 34943 ft | 468 kts | 154° |
| 2026-05-05 22:07 | 46.57111 | 46.17739 | 34946 ft | 468 kts | 154° |
| 2026-05-05 22:07 | 46.51258 | 46.21895 | 34949 ft | 468 kts | 154° |
| 2026-05-05 22:08 | 46.45407 | 46.26042 | 34940 ft | 468 kts | 154° |
| 2026-05-05 22:08 | 46.39561 | 46.30184 | 34943 ft | 468 kts | 154° |
| 2026-05-05 22:09 | 46.33709 | 46.34311 | 34946 ft | 468 kts | 154° |
| 2026-05-05 22:09 | 46.27855 | 46.38431 | 34943 ft | 468 kts | 154° |
| 2026-05-05 22:10 | 46.22002 | 46.42547 | 34942 ft | 468 kts | 155° |
| 2026-05-05 22:10 | 46.16146 | 46.46649 | 34943 ft | 468 kts | 155° |
| 2026-05-05 22:11 | 46.10290 | 46.50741 | 34946 ft | 468 kts | 155° |
| 2026-05-05 22:11 | 46.04435 | 46.54835 | 34937 ft | 468 kts | 155° |
| 2026-05-05 22:12 | 45.98581 | 46.58924 | 34939 ft | 467 kts | 155° |
| 2026-05-05 22:12 | 45.92733 | 46.62998 | 34944 ft | 467 kts | 155° |
| 2026-05-05 22:13 | 45.86884 | 46.67074 | 34946 ft | 467 kts | 155° |
| 2026-05-05 22:13 | 45.81041 | 46.71137 | 34939 ft | 466 kts | 155° |
| 2026-05-05 22:14 | 45.75198 | 46.75189 | 34948 ft | 466 kts | 155° |
| 2026-05-05 22:14 | 45.69355 | 46.79230 | 34949 ft | 467 kts | 155° |
| 2026-05-05 22:15 | 45.63509 | 46.83267 | 34942 ft | 467 kts | 155° |
| 2026-05-05 22:15 | 45.57664 | 46.87294 | 34945 ft | 465 kts | 155° |
| 2026-05-05 22:16 | 45.51827 | 46.91304 | 34945 ft | 465 kts | 155° |
| 2026-05-05 22:16 | 45.45994 | 46.95311 | 34942 ft | 465 kts | 155° |
| 2026-05-05 22:17 | 45.40159 | 46.99317 | 34950 ft | 466 kts | 155° |
| 2026-05-05 22:17 | 45.34317 | 47.03314 | 34954 ft | 466 kts | 155° |
| 2026-05-05 22:18 | 45.28474 | 47.07300 | 34951 ft | 466 kts | 155° |
| 2026-05-05 22:18 | 45.22633 | 47.11279 | 34954 ft | 466 kts | 155° |
| 2026-05-05 22:19 | 45.16792 | 47.15248 | 34954 ft | 466 kts | 155° |
| 2026-05-05 22:19 | 45.10943 | 47.19214 | 34954 ft | 466 kts | 155° |
| 2026-05-05 22:20 | 45.05098 | 47.23169 | 34957 ft | 466 kts | 155° |
| 2026-05-05 22:20 | 44.99248 | 47.27135 | 34945 ft | 466 kts | 156° |
| 2026-05-05 22:21 | 44.93403 | 47.31085 | 34962 ft | 466 kts | 156° |
| 2026-05-05 22:21 | 44.87547 | 47.35032 | 34962 ft | 466 kts | 156° |
| 2026-05-05 22:22 | 44.81695 | 47.38977 | 34955 ft | 466 kts | 156° |
| 2026-05-05 22:22 | 44.75840 | 47.42914 | 34957 ft | 466 kts | 157° |
| 2026-05-05 22:23 | 44.69986 | 47.46833 | 34957 ft | 466 kts | 157° |
| 2026-05-05 22:23 | 44.64135 | 47.50744 | 34963 ft | 466 kts | 157° |
| 2026-05-05 22:24 | 44.58291 | 47.54650 | 34956 ft | 464 kts | 158° |
| 2026-05-05 22:24 | 44.52455 | 47.58527 | 34961 ft | 464 kts | 158° |
| 2026-05-05 22:25 | 44.46618 | 47.62414 | 34965 ft | 464 kts | 157° |
| 2026-05-05 22:25 | 44.40787 | 47.66311 | 34963 ft | 463 kts | 158° |
| 2026-05-05 22:26 | 44.34976 | 47.70179 | 34969 ft | 462 kts | 158° |
| 2026-05-05 22:26 | 44.29170 | 47.74032 | 34970 ft | 462 kts | 158° |
| 2026-05-05 22:27 | 44.23367 | 47.77879 | 34971 ft | 461 kts | 158° |
| 2026-05-05 22:27 | 44.17571 | 47.81713 | 34970 ft | 460 kts | 158° |
| 2026-05-05 22:28 | 44.11793 | 47.85521 | 34968 ft | 460 kts | 158° |
| 2026-05-05 22:28 | 44.06003 | 47.89330 | 34974 ft | 460 kts | 158° |
| 2026-05-05 22:29 | 44.00235 | 47.93123 | 34978 ft | 458 kts | 159° |
| 2026-05-05 22:29 | 43.94456 | 47.96908 | 34979 ft | 458 kts | 159° |
| 2026-05-05 22:30 | 43.88698 | 48.00671 | 34979 ft | 458 kts | 159° |
| 2026-05-05 22:30 | 43.82930 | 48.04439 | 34971 ft | 457 kts | 159° |
| 2026-05-05 22:31 | 43.77178 | 48.08183 | 34975 ft | 457 kts | 159° |
| 2026-05-05 22:31 | 43.71426 | 48.11918 | 34979 ft | 456 kts | 159° |
| 2026-05-05 22:32 | 43.65676 | 48.15649 | 34967 ft | 456 kts | 159° |
| 2026-05-05 22:32 | 43.59941 | 48.19362 | 34994 ft | 455 kts | 160° |
| 2026-05-05 22:33 | 43.54208 | 48.23060 | 34979 ft | 456 kts | 159° |
| 2026-05-05 22:33 | 43.48462 | 48.26764 | 34956 ft | 456 kts | 159° |
| 2026-05-05 22:34 | 43.42734 | 48.30453 | 34976 ft | 453 kts | 160° |
| 2026-05-05 22:34 | 43.37017 | 48.34117 | 34978 ft | 453 kts | 160° |
| 2026-05-05 22:35 | 43.31297 | 48.37778 | 34977 ft | 453 kts | 160° |
| 2026-05-05 22:35 | 43.25588 | 48.41462 | 34977 ft | 454 kts | 158° |
| 2026-05-05 22:36 | 43.20058 | 48.45742 | 34978 ft | 458 kts | 153° |
| 2026-05-05 22:36 | 43.15575 | 48.49744 | 34985 ft | 459 kts | 152° |
| 2026-05-05 22:37 | 43.10211 | 48.54518 | 34974 ft | 460 kts | 153° |
| 2026-05-05 22:37 | 43.03970 | 48.60058 | 34978 ft | 461 kts | 153° |
| 2026-05-05 22:38 | 42.99462 | 48.64048 | 34975 ft | 461 kts | 153° |
| 2026-05-05 22:38 | 42.94082 | 48.68807 | 34958 ft | 461 kts | 153° |
| 2026-05-05 22:39 | 42.88692 | 48.73566 | 34976 ft | 461 kts | 153° |
| 2026-05-05 22:39 | 42.83300 | 48.78311 | 34980 ft | 461 kts | 153° |
| 2026-05-05 22:40 | 42.77908 | 48.83049 | 34959 ft | 461 kts | 153° |
| 2026-05-05 22:40 | 42.72488 | 48.87729 | 34982 ft | 460 kts | 155° |
| 2026-05-05 22:41 | 42.67023 | 48.92261 | 34982 ft | 460 kts | 155° |
| 2026-05-05 22:41 | 42.61555 | 48.96790 | 34986 ft | 460 kts | 155° |
| 2026-05-05 22:42 | 42.56113 | 49.01308 | 34972 ft | 458 kts | 155° |
| 2026-05-05 22:42 | 42.50666 | 49.05818 | 34980 ft | 458 kts | 155° |
| 2026-05-05 22:43 | 42.45223 | 49.10317 | 34980 ft | 458 kts | 155° |
| 2026-05-05 22:43 | 42.39795 | 49.14800 | 34969 ft | 455 kts | 155° |
| 2026-05-05 22:44 | 42.34386 | 49.19253 | 34982 ft | 455 kts | 156° |
| 2026-05-05 22:44 | 42.28981 | 49.23691 | 34981 ft | 454 kts | 156° |
| 2026-05-05 22:45 | 42.23458 | 49.27671 | 34971 ft | 446 kts | 162° |
| 2026-05-05 22:45 | 42.17753 | 49.30808 | 34979 ft | 440 kts | 167° |
| 2026-05-05 22:46 | 42.11950 | 49.33408 | 34984 ft | 441 kts | 168° |
| 2026-05-05 22:46 | 42.06135 | 49.36025 | 34967 ft | 439 kts | 168° |
| 2026-05-05 22:47 | 42.00355 | 49.38618 | 34980 ft | 437 kts | 168° |
| 2026-05-05 22:47 | 41.94579 | 49.41200 | 34981 ft | 437 kts | 168° |
| 2026-05-05 22:48 | 41.88806 | 49.43774 | 34964 ft | 437 kts | 168° |
| 2026-05-05 22:48 | 41.83059 | 49.46335 | 34982 ft | 435 kts | 168° |
| 2026-05-05 22:49 | 41.77311 | 49.48884 | 34991 ft | 436 kts | 168° |
| 2026-05-05 22:49 | 41.71550 | 49.51438 | 34988 ft | 437 kts | 168° |
| 2026-05-05 22:50 | 41.65784 | 49.53994 | 34974 ft | 436 kts | 168° |
| 2026-05-05 22:50 | 41.60028 | 49.56536 | 34987 ft | 436 kts | 168° |
| 2026-05-05 22:51 | 41.54273 | 49.59073 | 34984 ft | 435 kts | 168° |
| 2026-05-05 22:51 | 41.48522 | 49.61604 | 34987 ft | 435 kts | 168° |
| 2026-05-05 22:52 | 41.42764 | 49.64131 | 34988 ft | 436 kts | 168° |
| 2026-05-05 22:52 | 41.36987 | 49.66663 | 34988 ft | 437 kts | 168° |
| 2026-05-05 22:53 | 41.31213 | 49.69193 | 34979 ft | 436 kts | 168° |
| 2026-05-05 22:53 | 41.25456 | 49.71708 | 34984 ft | 435 kts | 168° |
| 2026-05-05 22:54 | 41.19696 | 49.74219 | 34986 ft | 435 kts | 168° |
| 2026-05-05 22:54 | 41.13944 | 49.76722 | 34965 ft | 434 kts | 168° |
| 2026-05-05 22:55 | 41.08219 | 49.79203 | 34982 ft | 431 kts | 168° |
| 2026-05-05 22:55 | 41.02506 | 49.81644 | 34983 ft | 431 kts | 168° |
| 2026-05-05 22:56 | 40.96800 | 49.84079 | 34954 ft | 431 kts | 169° |
| 2026-05-05 22:56 | 40.91101 | 49.86511 | 34979 ft | 430 kts | 169° |
| 2026-05-05 22:57 | 40.85404 | 49.88935 | 34973 ft | 430 kts | 169° |
| 2026-05-05 22:57 | 40.79704 | 49.91357 | 34972 ft | 430 kts | 169° |
| 2026-05-05 22:58 | 40.74010 | 49.93776 | 34951 ft | 431 kts | 169° |
| 2026-05-05 22:58 | 40.68297 | 49.96193 | 34952 ft | 431 kts | 169° |
| 2026-05-05 22:59 | 40.62585 | 49.98608 | 34943 ft | 431 kts | 169° |
| 2026-05-05 22:59 | 40.57064 | 50.00939 | 34939 ft | 431 kts | 169° |
| 2026-05-05 23:00 | 40.49039 | 50.04318 | 34944 ft | 431 kts | 169° |
| 2026-05-05 23:00 | 40.43122 | 50.06758 | 34950 ft | 431 kts | 170° |
| 2026-05-05 23:01 | 40.37369 | 50.09076 | 34939 ft | 433 kts | 170° |
| 2026-05-05 23:01 | 40.31601 | 50.11398 | 34945 ft | 434 kts | 170° |
| 2026-05-05 23:02 | 40.25825 | 50.13723 | 34947 ft | 434 kts | 170° |
| 2026-05-05 23:02 | 40.20047 | 50.16048 | 34942 ft | 435 kts | 170° |
| 2026-05-05 23:03 | 40.14262 | 50.18370 | 34957 ft | 435 kts | 170° |
| 2026-05-05 23:03 | 40.08465 | 50.20692 | 34974 ft | 436 kts | 170° |
| 2026-05-05 23:04 | 40.02655 | 50.23018 | 34958 ft | 437 kts | 171° |
| 2026-05-05 23:04 | 39.96836 | 50.25342 | 34966 ft | 438 kts | 171° |
| 2026-05-05 23:05 | 39.91012 | 50.27664 | 34962 ft | 438 kts | 171° |
| 2026-05-05 23:05 | 39.85190 | 50.29984 | 34956 ft | 438 kts | 171° |
| 2026-05-05 23:06 | 39.79363 | 50.32303 | 34966 ft | 438 kts | 171° |
| 2026-05-05 23:06 | 39.73539 | 50.34626 | 34965 ft | 438 kts | 171° |
| 2026-05-05 23:07 | 39.67700 | 50.36950 | 34963 ft | 439 kts | 171° |
| 2026-05-05 23:07 | 39.61871 | 50.39268 | 34961 ft | 439 kts | 171° |
| 2026-05-05 23:08 | 39.56034 | 50.41584 | 34965 ft | 439 kts | 171° |
| 2026-05-05 23:08 | 39.50206 | 50.43895 | 34953 ft | 436 kts | 171° |
| 2026-05-05 23:09 | 39.44405 | 50.46188 | 34973 ft | 437 kts | 171° |
| 2026-05-05 23:09 | 39.38584 | 50.48484 | 34960 ft | 437 kts | 171° |
| 2026-05-05 23:10 | 39.32775 | 50.50773 | 34958 ft | 435 kts | 171° |
| 2026-05-05 23:10 | 39.26987 | 50.53050 | 34955 ft | 435 kts | 171° |
| 2026-05-05 23:11 | 39.21197 | 50.55322 | 34959 ft | 435 kts | 171° |
| 2026-05-05 23:11 | 39.15416 | 50.57589 | 34941 ft | 433 kts | 171° |
| 2026-05-05 23:12 | 39.09641 | 50.59848 | 34955 ft | 434 kts | 171° |
| 2026-05-05 23:12 | 39.03851 | 50.62109 | 34951 ft | 434 kts | 171° |
| 2026-05-05 23:13 | 38.98072 | 50.64364 | 34938 ft | 434 kts | 171° |
| 2026-05-05 23:13 | 38.92290 | 50.66614 | 34947 ft | 434 kts | 172° |
| 2026-05-05 23:14 | 38.86512 | 50.68858 | 34915 ft | 434 kts | 172° |
| 2026-05-05 23:14 | 38.80729 | 50.71076 | 34943 ft | 434 kts | 172° |
| 2026-05-05 23:15 | 38.74929 | 50.73293 | 34948 ft | 435 kts | 172° |
| 2026-05-05 23:15 | 38.69130 | 50.75508 | 34920 ft | 435 kts | 172° |
| 2026-05-05 23:16 | 38.64276 | 50.77360 | 34936 ft | 434 kts | 172° |
| 2026-05-05 23:16 | 38.58489 | 50.79566 | 34939 ft | 434 kts | 172° |
| 2026-05-05 23:17 | 38.52696 | 50.81770 | 34914 ft | 434 kts | 172° |
| 2026-05-05 23:17 | 38.46889 | 50.83974 | 34932 ft | 436 kts | 172° |
| 2026-05-05 23:18 | 38.41077 | 50.86178 | 34933 ft | 436 kts | 172° |
| 2026-05-05 23:18 | 38.35265 | 50.88380 | 34903 ft | 436 kts | 172° |
| 2026-05-05 23:19 | 38.29441 | 50.90581 | 34928 ft | 436 kts | 172° |
| 2026-05-05 23:19 | 38.23619 | 50.92778 | 34931 ft | 436 kts | 172° |
| 2026-05-05 23:20 | 38.17786 | 50.94975 | 34918 ft | 437 kts | 172° |
| 2026-05-05 23:20 | 38.11947 | 50.97171 | 34924 ft | 438 kts | 172° |
| 2026-05-05 23:21 | 38.06101 | 50.99366 | 34925 ft | 438 kts | 172° |
| 2026-05-05 23:21 | 38.00254 | 51.01558 | 34924 ft | 438 kts | 172° |
| 2026-05-05 23:22 | 37.94398 | 51.03591 | 34924 ft | 436 kts | 173° |
| 2026-05-05 23:22 | 37.88531 | 51.05560 | 34924 ft | 436 kts | 173° |
| 2026-05-05 23:23 | 37.82667 | 51.07540 | 34913 ft | 438 kts | 173° |
| 2026-05-05 23:23 | 37.76783 | 51.09530 | 34920 ft | 438 kts | 173° |
| 2026-05-05 23:24 | 37.70891 | 51.11522 | 34909 ft | 438 kts | 173° |
| 2026-05-05 23:24 | 37.64990 | 51.13515 | 34918 ft | 439 kts | 173° |
| 2026-05-05 23:25 | 37.59080 | 51.15510 | 34920 ft | 440 kts | 173° |
| 2026-05-05 23:25 | 37.53171 | 51.17502 | 34903 ft | 440 kts | 173° |
| 2026-05-05 23:26 | 37.47243 | 51.19495 | 34928 ft | 441 kts | 173° |
| 2026-05-05 23:26 | 37.41310 | 51.21488 | 34915 ft | 441 kts | 173° |
| 2026-05-05 23:27 | 37.35371 | 51.23480 | 34913 ft | 442 kts | 173° |
| 2026-05-05 23:27 | 37.29432 | 51.25468 | 34918 ft | 442 kts | 173° |
| 2026-05-05 23:28 | 37.23479 | 51.27458 | 34918 ft | 442 kts | 173° |
| 2026-05-05 23:28 | 37.17531 | 51.29443 | 34914 ft | 443 kts | 173° |
| 2026-05-05 23:29 | 37.11572 | 51.31428 | 34914 ft | 443 kts | 173° |
| 2026-05-05 23:29 | 37.05616 | 51.33409 | 34917 ft | 443 kts | 173° |
| 2026-05-05 23:30 | 36.99636 | 51.35393 | 34902 ft | 445 kts | 173° |
| 2026-05-05 23:30 | 36.93647 | 51.37380 | 34903 ft | 446 kts | 173° |
| 2026-05-05 23:31 | 36.87657 | 51.39364 | 34865 ft | 445 kts | 173° |
| 2026-05-05 23:31 | 36.81643 | 51.41350 | 34870 ft | 448 kts | 173° |
| 2026-05-05 23:32 | 36.75617 | 51.43357 | 34861 ft | 450 kts | 172° |
| 2026-05-05 23:32 | 36.69660 | 51.45925 | 34824 ft | 457 kts | 166° |
| 2026-05-05 23:33 | 36.63828 | 51.49370 | 34856 ft | 469 kts | 159° |
| 2026-05-05 23:33 | 36.58235 | 51.53712 | 34861 ft | 477 kts | 152° |
| 2026-05-05 23:34 | 36.52861 | 51.58595 | 34918 ft | 480 kts | 152° |
| 2026-05-05 23:34 | 36.47461 | 51.63505 | 34940 ft | 481 kts | 152° |
| 2026-05-05 23:35 | 36.42057 | 51.68400 | 34978 ft | 481 kts | 152° |
| 2026-05-05 23:35 | 36.36644 | 51.73296 | 34987 ft | 481 kts | 152° |
| 2026-05-05 23:36 | 36.31225 | 51.78189 | 34982 ft | 481 kts | 152° |
| 2026-05-05 23:36 | 36.25809 | 51.83070 | 34953 ft | 480 kts | 151° |
| 2026-05-05 23:37 | 36.20367 | 51.87959 | 35002 ft | 484 kts | 151° |
| 2026-05-05 23:37 | 36.14916 | 51.92854 | 35016 ft | 484 kts | 151° |
| 2026-05-05 23:38 | 36.09457 | 51.97753 | 35022 ft | 486 kts | 152° |
| 2026-05-05 23:38 | 36.03923 | 52.02702 | 35017 ft | 488 kts | 152° |
| 2026-05-05 23:39 | 35.98412 | 52.07610 | 35014 ft | 488 kts | 151° |
| 2026-05-05 23:39 | 35.92898 | 52.12542 | 35021 ft | 490 kts | 152° |
| 2026-05-05 23:40 | 35.87367 | 52.17465 | 35032 ft | 490 kts | 152° |
| 2026-05-05 23:40 | 35.81826 | 52.22384 | 35047 ft | 491 kts | 152° |
| 2026-05-05 23:41 | 35.76327 | 52.27276 | 35028 ft | 484 kts | 153° |
| 2026-05-05 23:41 | 35.70834 | 52.32113 | 34998 ft | 488 kts | 152° |
| 2026-05-05 23:42 | 35.65305 | 52.37001 | 35012 ft | 489 kts | 153° |
| 2026-05-05 23:42 | 35.59801 | 52.41867 | 34982 ft | 486 kts | 153° |
| 2026-05-05 23:43 | 35.54310 | 52.46696 | 34967 ft | 486 kts | 153° |
| 2026-05-05 23:43 | 35.48816 | 52.51526 | 34941 ft | 485 kts | 153° |
| 2026-05-05 23:44 | 35.43327 | 52.56336 | 34931 ft | 485 kts | 153° |
| 2026-05-05 23:44 | 35.37835 | 52.61148 | 34932 ft | 485 kts | 153° |
| 2026-05-05 23:45 | 35.32346 | 52.65952 | 34911 ft | 485 kts | 153° |
| 2026-05-05 23:45 | 35.26702 | 52.70346 | 34904 ft | 477 kts | 160° |
| 2026-05-05 23:46 | 35.20803 | 52.73896 | 34867 ft | 469 kts | 166° |
| 2026-05-05 23:46 | 35.14736 | 52.76680 | 34844 ft | 464 kts | 169° |
| 2026-05-05 23:47 | 35.08621 | 52.79334 | 34857 ft | 467 kts | 168° |
| 2026-05-05 23:47 | 35.02496 | 52.82012 | 34851 ft | 468 kts | 169° |
| 2026-05-05 23:48 | 34.96376 | 52.84686 | 34858 ft | 468 kts | 169° |
| 2026-05-05 23:48 | 34.90246 | 52.87353 | 34857 ft | 468 kts | 169° |
| 2026-05-05 23:49 | 34.84118 | 52.90015 | 34855 ft | 468 kts | 169° |
| 2026-05-05 23:49 | 34.77982 | 52.92677 | 34856 ft | 468 kts | 169° |
| 2026-05-05 23:50 | 34.71856 | 52.95330 | 34856 ft | 468 kts | 169° |
| 2026-05-05 23:50 | 34.65721 | 52.97986 | 34846 ft | 468 kts | 169° |
| 2026-05-05 23:51 | 34.59583 | 53.00636 | 34850 ft | 469 kts | 169° |
| 2026-05-05 23:51 | 34.53423 | 53.03284 | 34845 ft | 470 kts | 169° |
| 2026-05-05 23:52 | 34.47257 | 53.05942 | 34840 ft | 471 kts | 169° |
| 2026-05-05 23:52 | 34.41078 | 53.08600 | 34846 ft | 471 kts | 169° |
| 2026-05-05 23:53 | 34.34901 | 53.11251 | 34847 ft | 471 kts | 169° |
| 2026-05-05 23:53 | 34.28719 | 53.13902 | 34839 ft | 472 kts | 169° |
| 2026-05-05 23:54 | 34.23565 | 53.16106 | 34839 ft | 473 kts | 169° |
| 2026-05-05 23:54 | 34.17366 | 53.18753 | 34841 ft | 473 kts | 169° |
| 2026-05-05 23:55 | 34.11159 | 53.21402 | 34834 ft | 473 kts | 169° |
| 2026-05-05 23:55 | 34.04948 | 53.24047 | 34845 ft | 474 kts | 169° |
| 2026-05-05 23:56 | 33.98711 | 53.26691 | 34840 ft | 476 kts | 169° |
| 2026-05-05 23:56 | 33.92449 | 53.29351 | 34853 ft | 477 kts | 169° |
| 2026-05-05 23:57 | 33.86180 | 53.32011 | 34861 ft | 478 kts | 169° |
| 2026-05-05 23:57 | 33.79903 | 53.34669 | 34868 ft | 478 kts | 169° |
| 2026-05-05 23:58 | 33.73625 | 53.37322 | 34855 ft | 478 kts | 169° |
| 2026-05-05 23:58 | 33.67343 | 53.39971 | 34873 ft | 478 kts | 169° |
| 2026-05-05 23:59 | 33.61126 | 53.42928 | 34884 ft | 485 kts | 163° |
| 2026-05-05 23:59 | 33.55131 | 53.46815 | 34879 ft | 495 kts | 156° |
| 2026-05-06 00:00 | 33.49467 | 53.51653 | 34895 ft | 505 kts | 149° |
| 2026-05-06 00:00 | 33.44155 | 53.57216 | 34901 ft | 508 kts | 146° |
| 2026-05-06 00:01 | 33.39044 | 53.63101 | 34910 ft | 512 kts | 141° |
| 2026-05-06 00:01 | 33.34445 | 53.69685 | 34909 ft | 520 kts | 134° |
| 2026-05-06 00:02 | 33.30241 | 53.76762 | 34870 ft | 522 kts | 132° |
| 2026-05-06 00:02 | 33.26053 | 53.83856 | 34900 ft | 522 kts | 132° |
| 2026-05-06 00:03 | 33.21309 | 53.90225 | 34900 ft | 505 kts | 148° |
| 2026-05-06 00:03 | 33.15583 | 53.94806 | 34902 ft | 488 kts | 162° |
| 2026-05-06 00:04 | 33.09341 | 53.97513 | 34904 ft | 470 kts | 176° |
| 2026-05-06 00:04 | 33.02961 | 53.99097 | 34907 ft | 469 kts | 177° |
| 2026-05-06 00:05 | 32.93350 | 54.01451 | 34898 ft | 471 kts | 176° |
| 2026-05-06 00:06 | 32.86927 | 54.03066 | 34890 ft | 472 kts | 176° |
| 2026-05-06 00:06 | 32.80510 | 54.04735 | 34892 ft | 472 kts | 176° |
| 2026-05-06 00:07 | 32.74093 | 54.06451 | 34895 ft | 473 kts | 176° |
| 2026-05-06 00:07 | 32.67676 | 54.08160 | 34887 ft | 474 kts | 176° |
| 2026-05-06 00:08 | 32.61227 | 54.09867 | 34903 ft | 475 kts | 176° |
| 2026-05-06 00:08 | 32.54782 | 54.11569 | 34894 ft | 475 kts | 176° |
| 2026-05-06 00:09 | 32.48336 | 54.13272 | 34895 ft | 476 kts | 176° |
| 2026-05-06 00:09 | 32.41856 | 54.14976 | 34914 ft | 477 kts | 176° |
| 2026-05-06 00:10 | 32.35382 | 54.16665 | 34917 ft | 476 kts | 177° |
| 2026-05-06 00:10 | 32.28897 | 54.18321 | 34909 ft | 477 kts | 177° |
| 2026-05-06 00:11 | 32.22401 | 54.19975 | 34942 ft | 478 kts | 177° |
| 2026-05-06 00:11 | 32.15905 | 54.21628 | 34991 ft | 478 kts | 177° |
| 2026-05-06 00:12 | 32.09412 | 54.23281 | 35013 ft | 478 kts | 177° |
| 2026-05-06 00:12 | 32.02906 | 54.24934 | 35048 ft | 478 kts | 177° |
| 2026-05-06 00:13 | 31.96393 | 54.26606 | 35079 ft | 481 kts | 176° |
| 2026-05-06 00:13 | 31.89917 | 54.28861 | 35069 ft | 490 kts | 169° |
| 2026-05-06 00:14 | 31.83574 | 54.31990 | 35081 ft | 499 kts | 163° |
| 2026-05-06 00:14 | 31.77372 | 54.35727 | 35057 ft | 500 kts | 162° |
| 2026-05-06 00:15 | 31.71187 | 54.39475 | 34966 ft | 500 kts | 162° |
| 2026-05-06 00:15 | 31.64978 | 54.43218 | 34987 ft | 503 kts | 162° |
| 2026-05-06 00:16 | 31.58751 | 54.46959 | 34989 ft | 502 kts | 162° |
| 2026-05-06 00:16 | 31.52527 | 54.50693 | 35001 ft | 502 kts | 162° |
| 2026-05-06 00:17 | 31.46293 | 54.54429 | 35000 ft | 503 kts | 162° |
| 2026-05-06 00:17 | 31.40055 | 54.58166 | 34999 ft | 503 kts | 162° |
| 2026-05-06 00:18 | 31.33822 | 54.61899 | 34998 ft | 503 kts | 162° |
| 2026-05-06 00:18 | 31.27579 | 54.65633 | 34986 ft | 504 kts | 162° |
| 2026-05-06 00:19 | 31.21335 | 54.69359 | 35002 ft | 504 kts | 162° |
| 2026-05-06 00:19 | 31.15092 | 54.73080 | 35000 ft | 504 kts | 162° |
| 2026-05-06 00:20 | 31.08844 | 54.76797 | 35001 ft | 504 kts | 162° |
| 2026-05-06 00:20 | 31.02587 | 54.80515 | 35008 ft | 505 kts | 162° |
| 2026-05-06 00:21 | 30.96338 | 54.84225 | 35003 ft | 504 kts | 162° |
| 2026-05-06 00:21 | 30.90083 | 54.87930 | 34992 ft | 504 kts | 162° |
| 2026-05-06 00:22 | 30.83829 | 54.91629 | 35012 ft | 504 kts | 162° |
| 2026-05-06 00:22 | 30.77571 | 54.95325 | 35030 ft | 504 kts | 162° |
| 2026-05-06 00:23 | 30.71313 | 54.99007 | 35020 ft | 504 kts | 163° |
| 2026-05-06 00:23 | 30.65029 | 55.02691 | 35028 ft | 506 kts | 163° |
| 2026-05-06 00:24 | 30.58748 | 55.06367 | 35023 ft | 506 kts | 163° |
| 2026-05-06 00:24 | 30.52452 | 55.10049 | 35028 ft | 506 kts | 163° |
| 2026-05-06 00:25 | 30.46163 | 55.13720 | 35045 ft | 506 kts | 163° |
| 2026-05-06 00:25 | 30.39873 | 55.17387 | 35033 ft | 506 kts | 163° |
| 2026-05-06 00:26 | 30.33580 | 55.21050 | 35025 ft | 505 kts | 163° |
| 2026-05-06 00:26 | 30.27262 | 55.24723 | 35041 ft | 505 kts | 163° |
| 2026-05-06 00:27 | 30.20984 | 55.28365 | 35048 ft | 505 kts | 163° |
| 2026-05-06 00:27 | 30.14732 | 55.31988 | 35027 ft | 506 kts | 163° |
| 2026-05-06 00:28 | 30.08402 | 55.35651 | 35043 ft | 505 kts | 163° |
| 2026-05-06 00:28 | 30.02145 | 55.39269 | 35049 ft | 505 kts | 163° |
| 2026-05-06 00:29 | 29.95811 | 55.42929 | 35032 ft | 505 kts | 163° |
| 2026-05-06 00:29 | 29.89528 | 55.46554 | 35050 ft | 505 kts | 163° |
| 2026-05-06 00:30 | 29.83244 | 55.50175 | 35055 ft | 505 kts | 163° |
| 2026-05-06 00:30 | 29.76955 | 55.53792 | 35051 ft | 505 kts | 163° |
| 2026-05-06 00:31 | 29.70657 | 55.57407 | 35046 ft | 506 kts | 162° |
| 2026-05-06 00:31 | 29.64360 | 55.61021 | 35044 ft | 506 kts | 162° |
| 2026-05-06 00:32 | 29.58035 | 55.64522 | 35039 ft | 501 kts | 166° |
| 2026-05-06 00:32 | 29.51555 | 55.67261 | 35033 ft | 492 kts | 173° |
| 2026-05-06 00:33 | 29.46094 | 55.68974 | 35040 ft | 489 kts | 175° |
| 2026-05-06 00:33 | 29.39519 | 55.70967 | 35035 ft | 489 kts | 175° |
| 2026-05-06 00:34 | 29.32945 | 55.72970 | 35017 ft | 489 kts | 174° |
| 2026-05-06 00:34 | 29.26367 | 55.74974 | 35032 ft | 489 kts | 174° |
| 2026-05-06 00:35 | 29.19793 | 55.76981 | 35025 ft | 489 kts | 174° |
| 2026-05-06 00:35 | 29.13214 | 55.78985 | 35029 ft | 490 kts | 174° |
| 2026-05-06 00:36 | 29.06628 | 55.80988 | 35029 ft | 490 kts | 174° |
| 2026-05-06 00:36 | 29.00030 | 55.82993 | 35031 ft | 490 kts | 174° |